sensor_id;sensor_type;location;lat;lon;timestamp;P1;durP1;ratioP1;P2;durP2;ratioP2
16153;SDS011;8182;55.648;13.208;2023-05-20T00:00:40;2.90;;;1.17;;
16153;SDS011;8182;55.648;13.208;2023-05-20T00:03:08;1.60;;;1.13;;
16153;SDS011;8182;55.648;13.208;2023-05-20T00:05:35;4.40;;;1.30;;
16153;SDS011;8182;55.648;13.208;2023-05-20T00:08:02;4.30;;;1.20;;
16153;SDS011;8182;55.648;13.208;2023-05-20T00:10:33;1.33;;;1.10;;
16153;SDS011;8182;55.648;13.208;2023-05-20T00:13:00;4.87;;;1.40;;
16153;SDS011;8182;55.648;13.208;2023-05-20T00:15:27;2.33;;;1.20;;
16153;SDS011;8182;55.648;13.208;2023-05-20T00:17:54;3.23;;;1.20;;
16153;SDS011;8182;55.648;13.208;2023-05-20T00:20:23;1.67;;;1.13;;
16153;SDS011;8182;55.648;13.208;2023-05-20T00:22:50;1.53;;;1.10;;
16153;SDS011;8182;55.648;13.208;2023-05-20T00:25:17;1.90;;;1.30;;
16153;SDS011;8182;55.648;13.208;2023-05-20T00:27:44;1.23;;;0.93;;
16153;SDS011;8182;55.648;13.208;2023-05-20T00:30:11;3.27;;;1.30;;
16153;SDS011;8182;55.648;13.208;2023-05-20T00:32:39;3.07;;;1.20;;
16153;SDS011;8182;55.648;13.208;2023-05-20T00:35:06;1.20;;;1.10;;
16153;SDS011;8182;55.648;13.208;2023-05-20T00:37:36;2.07;;;1.20;;
16153;SDS011;8182;55.648;13.208;2023-05-20T00:40:03;2.93;;;1.20;;
16153;SDS011;8182;55.648;13.208;2023-05-20T00:42:31;1.90;;;1.17;;
16153;SDS011;8182;55.648;13.208;2023-05-20T00:44:58;1.70;;;1.30;;
16153;SDS011;8182;55.648;13.208;2023-05-20T00:47:26;1.27;;;1.17;;
16153;SDS011;8182;55.648;13.208;2023-05-20T00:49:56;2.33;;;1.10;;
16153;SDS011;8182;55.648;13.208;2023-05-20T00:52:25;1.33;;;1.10;;
16153;SDS011;8182;55.648;13.208;2023-05-20T00:54:56;1.67;;;1.20;;
16153;SDS011;8182;55.648;13.208;2023-05-20T00:57:23;1.40;;;1.30;;
16153;SDS011;8182;55.648;13.208;2023-05-20T00:59:50;1.80;;;1.20;;
16153;SDS011;8182;55.648;13.208;2023-05-20T01:02:17;2.23;;;1.20;;
16153;SDS011;8182;55.648;13.208;2023-05-20T01:04:48;1.40;;;1.30;;
16153;SDS011;8182;55.648;13.208;2023-05-20T01:07:15;1.07;;;1.03;;
16153;SDS011;8182;55.648;13.208;2023-05-20T01:09:43;1.50;;;1.33;;
16153;SDS011;8182;55.648;13.208;2023-05-20T01:12:13;2.80;;;1.40;;
16153;SDS011;8182;55.648;13.208;2023-05-20T01:14:45;1.20;;;1.10;;
16153;SDS011;8182;55.648;13.208;2023-05-20T01:17:15;3.97;;;1.20;;
16153;SDS011;8182;55.648;13.208;2023-05-20T01:19:45;3.07;;;1.30;;
16153;SDS011;8182;55.648;13.208;2023-05-20T01:22:13;1.93;;;1.30;;
16153;SDS011;8182;55.648;13.208;2023-05-20T01:24:43;2.60;;;1.47;;
16153;SDS011;8182;55.648;13.208;2023-05-20T01:27:12;2.27;;;1.10;;
16153;SDS011;8182;55.648;13.208;2023-05-20T01:29:40;2.07;;;1.40;;
16153;SDS011;8182;55.648;13.208;2023-05-20T01:32:09;1.30;;;1.20;;
16153;SDS011;8182;55.648;13.208;2023-05-20T01:34:38;1.70;;;1.40;;
16153;SDS011;8182;55.648;13.208;2023-05-20T01:37:09;1.60;;;1.30;;
16153;SDS011;8182;55.648;13.208;2023-05-20T01:39:38;1.63;;;1.27;;
16153;SDS011;8182;55.648;13.208;2023-05-20T01:42:08;1.73;;;1.30;;
16153;SDS011;8182;55.648;13.208;2023-05-20T01:44:36;1.37;;;1.27;;
16153;SDS011;8182;55.648;13.208;2023-05-20T01:47:03;1.53;;;1.30;;
16153;SDS011;8182;55.648;13.208;2023-05-20T01:49:30;2.00;;;1.30;;
16153;SDS011;8182;55.648;13.208;2023-05-20T01:51:57;2.20;;;1.37;;
16153;SDS011;8182;55.648;13.208;2023-05-20T01:54:24;1.50;;;1.40;;
16153;SDS011;8182;55.648;13.208;2023-05-20T01:56:51;1.83;;;1.40;;
16153;SDS011;8182;55.648;13.208;2023-05-20T01:59:20;2.33;;;1.40;;
16153;SDS011;8182;55.648;13.208;2023-05-20T02:01:46;2.27;;;1.30;;
16153;SDS011;8182;55.648;13.208;2023-05-20T02:04:13;2.33;;;1.70;;
16153;SDS011;8182;55.648;13.208;2023-05-20T02:06:43;1.87;;;1.37;;
16153;SDS011;8182;55.648;13.208;2023-05-20T02:09:10;2.90;;;1.40;;
16153;SDS011;8182;55.648;13.208;2023-05-20T02:11:37;1.67;;;1.53;;
16153;SDS011;8182;55.648;13.208;2023-05-20T02:14:04;2.93;;;1.43;;
16153;SDS011;8182;55.648;13.208;2023-05-20T02:16:32;2.73;;;1.40;;
16153;SDS011;8182;55.648;13.208;2023-05-20T02:18:59;3.07;;;1.30;;
16153;SDS011;8182;55.648;13.208;2023-05-20T02:21:26;1.60;;;1.30;;
16153;SDS011;8182;55.648;13.208;2023-05-20T02:23:53;1.90;;;1.30;;
16153;SDS011;8182;55.648;13.208;2023-05-20T02:26:20;1.77;;;1.30;;
16153;SDS011;8182;55.648;13.208;2023-05-20T02:28:47;3.23;;;1.50;;
16153;SDS011;8182;55.648;13.208;2023-05-20T02:31:14;2.80;;;1.80;;
16153;SDS011;8182;55.648;13.208;2023-05-20T02:33:44;1.87;;;1.40;;
16153;SDS011;8182;55.648;13.208;2023-05-20T02:36:12;1.83;;;1.60;;
16153;SDS011;8182;55.648;13.208;2023-05-20T02:38:39;2.07;;;1.50;;
16153;SDS011;8182;55.648;13.208;2023-05-20T02:41:06;2.00;;;1.40;;
16153;SDS011;8182;55.648;13.208;2023-05-20T02:43:33;2.50;;;1.50;;
16153;SDS011;8182;55.648;13.208;2023-05-20T02:46:00;4.47;;;1.50;;
16153;SDS011;8182;55.648;13.208;2023-05-20T02:48:28;1.93;;;1.43;;
16153;SDS011;8182;55.648;13.208;2023-05-20T02:50:57;1.50;;;1.30;;
16153;SDS011;8182;55.648;13.208;2023-05-20T02:53:24;3.23;;;1.47;;
16153;SDS011;8182;55.648;13.208;2023-05-20T02:55:51;1.40;;;1.30;;
16153;SDS011;8182;55.648;13.208;2023-05-20T02:58:18;1.63;;;1.20;;
16153;SDS011;8182;55.648;13.208;2023-05-20T03:00:50;2.77;;;1.13;;
16153;SDS011;8182;55.648;13.208;2023-05-20T03:03:17;2.53;;;1.40;;
16153;SDS011;8182;55.648;13.208;2023-05-20T03:05:44;1.97;;;1.10;;
16153;SDS011;8182;55.648;13.208;2023-05-20T03:08:12;1.53;;;1.27;;
16153;SDS011;8182;55.648;13.208;2023-05-20T03:10:39;1.77;;;1.30;;
16153;SDS011;8182;55.648;13.208;2023-05-20T03:13:07;2.27;;;1.30;;
16153;SDS011;8182;55.648;13.208;2023-05-20T03:15:35;1.83;;;1.00;;
16153;SDS011;8182;55.648;13.208;2023-05-20T03:18:02;2.30;;;1.20;;
16153;SDS011;8182;55.648;13.208;2023-05-20T03:20:30;1.17;;;1.03;;
16153;SDS011;8182;55.648;13.208;2023-05-20T03:22:57;3.17;;;1.37;;
16153;SDS011;8182;55.648;13.208;2023-05-20T03:25:26;2.10;;;1.37;;
16153;SDS011;8182;55.648;13.208;2023-05-20T03:27:53;2.30;;;1.13;;
16153;SDS011;8182;55.648;13.208;2023-05-20T03:30:22;2.90;;;1.30;;
16153;SDS011;8182;55.648;13.208;2023-05-20T03:32:49;4.47;;;1.30;;
16153;SDS011;8182;55.648;13.208;2023-05-20T03:35:16;1.90;;;1.20;;
16153;SDS011;8182;55.648;13.208;2023-05-20T03:37:43;2.13;;;1.10;;
16153;SDS011;8182;55.648;13.208;2023-05-20T03:40:10;3.13;;;1.27;;
16153;SDS011;8182;55.648;13.208;2023-05-20T03:42:39;2.47;;;1.10;;
16153;SDS011;8182;55.648;13.208;2023-05-20T03:45:07;1.10;;;1.00;;
16153;SDS011;8182;55.648;13.208;2023-05-20T03:47:34;1.60;;;1.30;;
16153;SDS011;8182;55.648;13.208;2023-05-20T03:50:01;2.37;;;1.20;;
16153;SDS011;8182;55.648;13.208;2023-05-20T03:52:29;2.10;;;1.17;;
16153;SDS011;8182;55.648;13.208;2023-05-20T03:54:56;1.80;;;1.03;;
16153;SDS011;8182;55.648;13.208;2023-05-20T03:57:23;1.80;;;1.17;;
16153;SDS011;8182;55.648;13.208;2023-05-20T03:59:51;2.47;;;1.20;;
16153;SDS011;8182;55.648;13.208;2023-05-20T04:02:18;3.27;;;1.20;;
16153;SDS011;8182;55.648;13.208;2023-05-20T04:04:46;3.13;;;1.40;;
16153;SDS011;8182;55.648;13.208;2023-05-20T04:07:16;1.60;;;1.33;;
16153;SDS011;8182;55.648;13.208;2023-05-20T04:09:43;3.37;;;1.47;;
16153;SDS011;8182;55.648;13.208;2023-05-20T04:12:10;4.53;;;1.70;;
16153;SDS011;8182;55.648;13.208;2023-05-20T04:14:38;2.47;;;1.30;;
16153;SDS011;8182;55.648;13.208;2023-05-20T04:17:07;2.23;;;1.33;;
16153;SDS011;8182;55.648;13.208;2023-05-20T04:19:34;4.53;;;1.53;;
16153;SDS011;8182;55.648;13.208;2023-05-20T04:22:02;4.47;;;1.30;;
16153;SDS011;8182;55.648;13.208;2023-05-20T04:24:29;3.73;;;1.37;;
16153;SDS011;8182;55.648;13.208;2023-05-20T04:26:56;1.87;;;1.33;;
16153;SDS011;8182;55.648;13.208;2023-05-20T04:29:23;2.27;;;1.20;;
16153;SDS011;8182;55.648;13.208;2023-05-20T04:31:50;2.83;;;1.40;;
16153;SDS011;8182;55.648;13.208;2023-05-20T04:34:19;1.97;;;1.30;;
16153;SDS011;8182;55.648;13.208;2023-05-20T04:36:50;2.83;;;1.50;;
16153;SDS011;8182;55.648;13.208;2023-05-20T04:39:17;3.13;;;1.40;;
16153;SDS011;8182;55.648;13.208;2023-05-20T04:41:45;3.77;;;1.50;;
16153;SDS011;8182;55.648;13.208;2023-05-20T04:44:12;1.77;;;1.33;;
16153;SDS011;8182;55.648;13.208;2023-05-20T04:46:39;2.23;;;1.57;;
16153;SDS011;8182;55.648;13.208;2023-05-20T04:49:06;3.73;;;1.60;;
16153;SDS011;8182;55.648;13.208;2023-05-20T04:51:35;2.83;;;1.40;;
16153;SDS011;8182;55.648;13.208;2023-05-20T04:54:02;3.03;;;1.60;;
16153;SDS011;8182;55.648;13.208;2023-05-20T04:56:29;3.73;;;1.50;;
16153;SDS011;8182;55.648;13.208;2023-05-20T04:58:56;3.63;;;1.53;;
16153;SDS011;8182;55.648;13.208;2023-05-20T05:01:23;3.87;;;1.27;;
16153;SDS011;8182;55.648;13.208;2023-05-20T05:03:50;5.30;;;1.53;;
16153;SDS011;8182;55.648;13.208;2023-05-20T05:06:17;2.60;;;1.50;;
16153;SDS011;8182;55.648;13.208;2023-05-20T05:08:45;2.63;;;1.40;;
16153;SDS011;8182;55.648;13.208;2023-05-20T05:11:12;1.83;;;1.30;;
16153;SDS011;8182;55.648;13.208;2023-05-20T05:13:39;3.77;;;1.47;;
16153;SDS011;8182;55.648;13.208;2023-05-20T05:16:06;2.83;;;1.40;;
16153;SDS011;8182;55.648;13.208;2023-05-20T05:18:33;3.03;;;1.60;;
16153;SDS011;8182;55.648;13.208;2023-05-20T05:21:00;2.40;;;1.33;;
16153;SDS011;8182;55.648;13.208;2023-05-20T05:23:28;2.90;;;1.40;;
16153;SDS011;8182;55.648;13.208;2023-05-20T05:25:56;2.40;;;1.30;;
16153;SDS011;8182;55.648;13.208;2023-05-20T05:28:23;2.27;;;1.10;;
16153;SDS011;8182;55.648;13.208;2023-05-20T05:30:52;2.10;;;1.07;;
16153;SDS011;8182;55.648;13.208;2023-05-20T05:33:20;2.10;;;0.93;;
16153;SDS011;8182;55.648;13.208;2023-05-20T05:35:47;2.50;;;1.10;;
16153;SDS011;8182;55.648;13.208;2023-05-20T05:38:15;2.30;;;1.17;;
16153;SDS011;8182;55.648;13.208;2023-05-20T05:40:42;4.50;;;1.37;;
16153;SDS011;8182;55.648;13.208;2023-05-20T05:43:10;2.87;;;1.10;;
16153;SDS011;8182;55.648;13.208;2023-05-20T05:45:37;1.30;;;0.90;;
16153;SDS011;8182;55.648;13.208;2023-05-20T05:48:06;1.60;;;1.00;;
16153;SDS011;8182;55.648;13.208;2023-05-20T05:50:33;4.07;;;1.23;;
16153;SDS011;8182;55.648;13.208;2023-05-20T05:53:00;2.63;;;1.10;;
16153;SDS011;8182;55.648;13.208;2023-05-20T05:55:27;3.60;;;1.30;;
16153;SDS011;8182;55.648;13.208;2023-05-20T05:57:54;2.87;;;1.13;;
16153;SDS011;8182;55.648;13.208;2023-05-20T06:00:22;3.57;;;1.40;;
16153;SDS011;8182;55.648;13.208;2023-05-20T06:02:49;1.60;;;1.07;;
16153;SDS011;8182;55.648;13.208;2023-05-20T06:05:16;2.03;;;1.20;;
16153;SDS011;8182;55.648;13.208;2023-05-20T06:07:43;2.30;;;1.40;;
16153;SDS011;8182;55.648;13.208;2023-05-20T06:10:10;4.97;;;1.30;;
16153;SDS011;8182;55.648;13.208;2023-05-20T06:12:38;1.83;;;1.10;;
16153;SDS011;8182;55.648;13.208;2023-05-20T06:15:05;2.47;;;1.30;;
16153;SDS011;8182;55.648;13.208;2023-05-20T06:17:34;2.07;;;1.30;;
16153;SDS011;8182;55.648;13.208;2023-05-20T06:20:01;2.47;;;1.10;;
16153;SDS011;8182;55.648;13.208;2023-05-20T06:22:28;2.80;;;1.30;;
16153;SDS011;8182;55.648;13.208;2023-05-20T06:24:55;3.13;;;1.13;;
16153;SDS011;8182;55.648;13.208;2023-05-20T06:27:24;2.13;;;1.07;;
16153;SDS011;8182;55.648;13.208;2023-05-20T06:29:52;1.90;;;1.10;;
16153;SDS011;8182;55.648;13.208;2023-05-20T06:32:19;2.40;;;1.20;;
16153;SDS011;8182;55.648;13.208;2023-05-20T06:34:47;2.50;;;1.40;;
16153;SDS011;8182;55.648;13.208;2023-05-20T06:37:14;1.73;;;1.30;;
16153;SDS011;8182;55.648;13.208;2023-05-20T06:39:41;1.57;;;1.10;;
16153;SDS011;8182;55.648;13.208;2023-05-20T06:42:08;3.97;;;1.43;;
16153;SDS011;8182;55.648;13.208;2023-05-20T06:44:35;2.97;;;1.10;;
16153;SDS011;8182;55.648;13.208;2023-05-20T06:47:02;1.70;;;1.20;;
16153;SDS011;8182;55.648;13.208;2023-05-20T06:49:29;3.37;;;1.43;;
16153;SDS011;8182;55.648;13.208;2023-05-20T06:51:57;4.30;;;1.33;;
16153;SDS011;8182;55.648;13.208;2023-05-20T06:54:24;2.30;;;1.30;;
16153;SDS011;8182;55.648;13.208;2023-05-20T06:56:51;4.23;;;1.50;;
16153;SDS011;8182;55.648;13.208;2023-05-20T06:59:18;2.40;;;1.20;;
16153;SDS011;8182;55.648;13.208;2023-05-20T07:01:46;2.20;;;1.37;;
16153;SDS011;8182;55.648;13.208;2023-05-20T07:04:13;3.23;;;1.27;;
16153;SDS011;8182;55.648;13.208;2023-05-20T07:06:40;4.47;;;1.30;;
16153;SDS011;8182;55.648;13.208;2023-05-20T07:09:09;2.87;;;1.20;;
16153;SDS011;8182;55.648;13.208;2023-05-20T07:11:36;1.20;;;1.00;;
16153;SDS011;8182;55.648;13.208;2023-05-20T07:14:08;4.20;;;1.23;;
16153;SDS011;8182;55.648;13.208;2023-05-20T07:16:35;5.40;;;1.10;;
16153;SDS011;8182;55.648;13.208;2023-05-20T07:19:03;2.70;;;1.10;;
16153;SDS011;8182;55.648;13.208;2023-05-20T07:21:30;2.10;;;1.00;;
16153;SDS011;8182;55.648;13.208;2023-05-20T07:23:57;3.80;;;1.20;;
16153;SDS011;8182;55.648;13.208;2023-05-20T07:26:25;2.30;;;1.20;;
16153;SDS011;8182;55.648;13.208;2023-05-20T07:28:52;3.37;;;1.50;;
16153;SDS011;8182;55.648;13.208;2023-05-20T07:31:19;2.50;;;1.00;;
16153;SDS011;8182;55.648;13.208;2023-05-20T07:33:48;1.97;;;1.00;;
16153;SDS011;8182;55.648;13.208;2023-05-20T07:36:15;10.00;;;1.20;;
16153;SDS011;8182;55.648;13.208;2023-05-20T07:38:42;2.03;;;1.10;;
16153;SDS011;8182;55.648;13.208;2023-05-20T07:41:10;3.13;;;1.00;;
16153;SDS011;8182;55.648;13.208;2023-05-20T07:43:39;3.90;;;1.20;;
16153;SDS011;8182;55.648;13.208;2023-05-20T07:46:07;3.53;;;1.40;;
16153;SDS011;8182;55.648;13.208;2023-05-20T07:48:34;3.77;;;1.20;;
16153;SDS011;8182;55.648;13.208;2023-05-20T07:51:01;2.30;;;1.20;;
16153;SDS011;8182;55.648;13.208;2023-05-20T07:53:28;3.00;;;1.00;;
16153;SDS011;8182;55.648;13.208;2023-05-20T07:55:55;1.97;;;1.13;;
16153;SDS011;8182;55.648;13.208;2023-05-20T07:58:22;1.67;;;1.10;;
16153;SDS011;8182;55.648;13.208;2023-05-20T08:00:51;1.73;;;1.10;;
16153;SDS011;8182;55.648;13.208;2023-05-20T08:03:18;3.93;;;1.10;;
16153;SDS011;8182;55.648;13.208;2023-05-20T08:05:46;3.57;;;1.20;;
16153;SDS011;8182;55.648;13.208;2023-05-20T08:08:13;1.60;;;1.00;;
16153;SDS011;8182;55.648;13.208;2023-05-20T08:10:41;2.93;;;1.03;;
16153;SDS011;8182;55.648;13.208;2023-05-20T08:13:08;2.87;;;1.20;;
16153;SDS011;8182;55.648;13.208;2023-05-20T08:15:35;1.73;;;1.13;;
16153;SDS011;8182;55.648;13.208;2023-05-20T08:18:03;1.97;;;1.30;;
16153;SDS011;8182;55.648;13.208;2023-05-20T08:20:31;5.13;;;1.20;;
16153;SDS011;8182;55.648;13.208;2023-05-20T08:22:58;2.33;;;1.13;;
16153;SDS011;8182;55.648;13.208;2023-05-20T08:25:31;3.27;;;1.20;;
16153;SDS011;8182;55.648;13.208;2023-05-20T08:28:00;3.10;;;1.00;;
16153;SDS011;8182;55.648;13.208;2023-05-20T08:30:30;5.90;;;1.47;;
16153;SDS011;8182;55.648;13.208;2023-05-20T08:32:57;2.70;;;1.33;;
16153;SDS011;8182;55.648;13.208;2023-05-20T08:35:25;2.83;;;1.17;;
16153;SDS011;8182;55.648;13.208;2023-05-20T08:37:53;2.30;;;1.10;;
16153;SDS011;8182;55.648;13.208;2023-05-20T08:40:20;3.43;;;1.30;;
16153;SDS011;8182;55.648;13.208;2023-05-20T08:42:49;2.23;;;1.03;;
16153;SDS011;8182;55.648;13.208;2023-05-20T08:45:17;3.10;;;1.30;;
16153;SDS011;8182;55.648;13.208;2023-05-20T08:47:45;2.23;;;1.30;;
16153;SDS011;8182;55.648;13.208;2023-05-20T08:50:12;1.50;;;1.00;;
16153;SDS011;8182;55.648;13.208;2023-05-20T08:52:43;2.47;;;1.00;;
16153;SDS011;8182;55.648;13.208;2023-05-20T08:55:13;1.90;;;1.10;;
16153;SDS011;8182;55.648;13.208;2023-05-20T08:57:42;2.40;;;1.10;;
16153;SDS011;8182;55.648;13.208;2023-05-20T09:00:11;2.47;;;1.23;;
16153;SDS011;8182;55.648;13.208;2023-05-20T09:02:41;4.37;;;1.10;;
16153;SDS011;8182;55.648;13.208;2023-05-20T09:05:09;2.70;;;1.07;;
16153;SDS011;8182;55.648;13.208;2023-05-20T09:07:36;1.97;;;1.10;;
16153;SDS011;8182;55.648;13.208;2023-05-20T09:10:05;4.67;;;1.13;;
16153;SDS011;8182;55.648;13.208;2023-05-20T09:12:33;4.47;;;1.17;;
16153;SDS011;8182;55.648;13.208;2023-05-20T09:15:01;2.83;;;1.10;;
16153;SDS011;8182;55.648;13.208;2023-05-20T09:17:27;5.30;;;1.30;;
16153;SDS011;8182;55.648;13.208;2023-05-20T09:19:54;2.83;;;1.17;;
16153;SDS011;8182;55.648;13.208;2023-05-20T09:22:22;1.97;;;1.10;;
16153;SDS011;8182;55.648;13.208;2023-05-20T09:24:49;3.57;;;1.10;;
16153;SDS011;8182;55.648;13.208;2023-05-20T09:27:18;1.77;;;1.00;;
16153;SDS011;8182;55.648;13.208;2023-05-20T09:29:46;4.83;;;1.20;;
16153;SDS011;8182;55.648;13.208;2023-05-20T09:32:13;2.77;;;1.00;;
16153;SDS011;8182;55.648;13.208;2023-05-20T09:34:41;3.13;;;0.90;;
16153;SDS011;8182;55.648;13.208;2023-05-20T09:37:09;2.03;;;0.87;;
16153;SDS011;8182;55.648;13.208;2023-05-20T09:39:38;1.60;;;0.90;;
16153;SDS011;8182;55.648;13.208;2023-05-20T09:42:14;3.40;;;1.10;;
16153;SDS011;8182;55.648;13.208;2023-05-20T09:44:47;3.90;;;0.80;;
16153;SDS011;8182;55.648;13.208;2023-05-20T09:47:15;2.87;;;0.80;;
16153;SDS011;8182;55.648;13.208;2023-05-20T09:49:44;3.30;;;0.93;;
16153;SDS011;8182;55.648;13.208;2023-05-20T09:52:12;1.50;;;0.97;;
16153;SDS011;8182;55.648;13.208;2023-05-20T09:54:41;2.33;;;0.80;;
16153;SDS011;8182;55.648;13.208;2023-05-20T09:57:09;1.97;;;0.90;;
16153;SDS011;8182;55.648;13.208;2023-05-20T09:59:39;3.63;;;0.87;;
16153;SDS011;8182;55.648;13.208;2023-05-20T10:02:06;2.27;;;0.83;;
16153;SDS011;8182;55.648;13.208;2023-05-20T10:04:34;2.13;;;0.80;;
16153;SDS011;8182;55.648;13.208;2023-05-20T10:07:22;2.33;;;0.80;;
16153;SDS011;8182;55.648;13.208;2023-05-20T10:10:08;2.20;;;0.77;;
16153;SDS011;8182;55.648;13.208;2023-05-20T10:12:44;2.07;;;0.80;;
16153;SDS011;8182;55.648;13.208;2023-05-20T10:15:21;1.10;;;0.63;;
16153;SDS011;8182;55.648;13.208;2023-05-20T10:17:56;3.00;;;0.90;;
16153;SDS011;8182;55.648;13.208;2023-05-20T10:20:31;2.50;;;0.90;;
16153;SDS011;8182;55.648;13.208;2023-05-20T10:22:58;1.60;;;0.70;;
16153;SDS011;8182;55.648;13.208;2023-05-20T10:25:25;3.33;;;0.80;;
16153;SDS011;8182;55.648;13.208;2023-05-20T10:28:03;3.23;;;0.97;;
16153;SDS011;8182;55.648;13.208;2023-05-20T10:30:33;3.20;;;0.80;;
16153;SDS011;8182;55.648;13.208;2023-05-20T10:33:04;2.10;;;0.80;;
16153;SDS011;8182;55.648;13.208;2023-05-20T10:35:32;2.00;;;0.80;;
16153;SDS011;8182;55.648;13.208;2023-05-20T10:38:06;1.83;;;1.10;;
16153;SDS011;8182;55.648;13.208;2023-05-20T10:40:34;2.13;;;0.83;;
16153;SDS011;8182;55.648;13.208;2023-05-20T10:43:07;0.93;;;0.60;;
16153;SDS011;8182;55.648;13.208;2023-05-20T10:45:47;2.97;;;0.80;;
16153;SDS011;8182;55.648;13.208;2023-05-20T10:48:25;1.50;;;0.70;;
16153;SDS011;8182;55.648;13.208;2023-05-20T10:50:57;1.83;;;0.80;;
16153;SDS011;8182;55.648;13.208;2023-05-20T10:53:28;1.97;;;0.70;;
16153;SDS011;8182;55.648;13.208;2023-05-20T10:56:03;2.57;;;0.53;;
16153;SDS011;8182;55.648;13.208;2023-05-20T10:58:35;3.43;;;0.60;;
16153;SDS011;8182;55.648;13.208;2023-05-20T11:01:04;2.33;;;0.60;;
16153;SDS011;8182;55.648;13.208;2023-05-20T11:03:32;0.80;;;0.60;;
16153;SDS011;8182;55.648;13.208;2023-05-20T11:06:00;2.80;;;0.83;;
16153;SDS011;8182;55.648;13.208;2023-05-20T11:08:28;0.60;;;0.50;;
16153;SDS011;8182;55.648;13.208;2023-05-20T11:10:56;1.73;;;0.70;;
16153;SDS011;8182;55.648;13.208;2023-05-20T11:13:23;1.07;;;0.63;;
16153;SDS011;8182;55.648;13.208;2023-05-20T11:15:51;3.80;;;0.77;;
16153;SDS011;8182;55.648;13.208;2023-05-20T11:18:19;0.90;;;0.57;;
16153;SDS011;8182;55.648;13.208;2023-05-20T11:20:46;1.67;;;0.60;;
16153;SDS011;8182;55.648;13.208;2023-05-20T11:23:13;4.23;;;0.80;;
16153;SDS011;8182;55.648;13.208;2023-05-20T11:25:41;1.97;;;0.70;;
16153;SDS011;8182;55.648;13.208;2023-05-20T11:28:08;1.33;;;0.70;;
16153;SDS011;8182;55.648;13.208;2023-05-20T11:30:38;1.47;;;0.63;;
16153;SDS011;8182;55.648;13.208;2023-05-20T11:33:10;0.70;;;0.50;;
16153;SDS011;8182;55.648;13.208;2023-05-20T11:35:43;3.30;;;0.80;;
16153;SDS011;8182;55.648;13.208;2023-05-20T11:38:12;2.33;;;0.77;;
16153;SDS011;8182;55.648;13.208;2023-05-20T11:40:42;1.97;;;0.60;;
16153;SDS011;8182;55.648;13.208;2023-05-20T11:43:11;1.60;;;0.60;;
16153;SDS011;8182;55.648;13.208;2023-05-20T11:45:39;0.83;;;0.60;;
16153;SDS011;8182;55.648;13.208;2023-05-20T11:48:06;1.87;;;0.50;;
16153;SDS011;8182;55.648;13.208;2023-05-20T11:50:34;1.23;;;0.60;;
16153;SDS011;8182;55.648;13.208;2023-05-20T11:53:05;1.77;;;0.70;;
16153;SDS011;8182;55.648;13.208;2023-05-20T11:55:33;2.00;;;0.60;;
16153;SDS011;8182;55.648;13.208;2023-05-20T11:58:09;0.93;;;0.60;;
16153;SDS011;8182;55.648;13.208;2023-05-20T12:00:36;2.03;;;0.60;;
16153;SDS011;8182;55.648;13.208;2023-05-20T12:03:03;1.00;;;0.60;;
16153;SDS011;8182;55.648;13.208;2023-05-20T12:05:30;1.37;;;0.70;;
16153;SDS011;8182;55.648;13.208;2023-05-20T12:07:57;0.90;;;0.60;;
16153;SDS011;8182;55.648;13.208;2023-05-20T12:10:26;2.00;;;0.60;;
16153;SDS011;8182;55.648;13.208;2023-05-20T12:12:53;3.60;;;1.00;;
16153;SDS011;8182;55.648;13.208;2023-05-20T12:15:20;1.73;;;0.67;;
16153;SDS011;8182;55.648;13.208;2023-05-20T12:17:48;1.17;;;0.60;;
16153;SDS011;8182;55.648;13.208;2023-05-20T12:20:16;2.07;;;0.60;;
16153;SDS011;8182;55.648;13.208;2023-05-20T12:22:46;1.00;;;0.70;;
16153;SDS011;8182;55.648;13.208;2023-05-20T12:25:14;0.70;;;0.63;;
16153;SDS011;8182;55.648;13.208;2023-05-20T12:27:44;1.93;;;0.77;;
16153;SDS011;8182;55.648;13.208;2023-05-20T12:30:13;0.83;;;0.60;;
16153;SDS011;8182;55.648;13.208;2023-05-20T12:32:41;1.07;;;0.60;;
16153;SDS011;8182;55.648;13.208;2023-05-20T12:35:09;2.17;;;0.67;;
16153;SDS011;8182;55.648;13.208;2023-05-20T12:37:36;2.03;;;0.50;;
16153;SDS011;8182;55.648;13.208;2023-05-20T12:40:04;1.37;;;0.77;;
16153;SDS011;8182;55.648;13.208;2023-05-20T12:42:33;1.87;;;0.73;;
16153;SDS011;8182;55.648;13.208;2023-05-20T12:45:02;0.70;;;0.60;;
16153;SDS011;8182;55.648;13.208;2023-05-20T12:47:30;3.20;;;0.67;;
16153;SDS011;8182;55.648;13.208;2023-05-20T12:49:58;8.20;;;1.00;;
16153;SDS011;8182;55.648;13.208;2023-05-20T12:52:25;2.10;;;0.60;;
16153;SDS011;8182;55.648;13.208;2023-05-20T12:54:52;1.43;;;0.60;;
16153;SDS011;8182;55.648;13.208;2023-05-20T12:57:20;1.07;;;0.43;;
16153;SDS011;8182;55.648;13.208;2023-05-20T12:59:47;0.97;;;0.60;;
16153;SDS011;8182;55.648;13.208;2023-05-20T13:02:15;1.90;;;0.60;;
16153;SDS011;8182;55.648;13.208;2023-05-20T13:04:42;0.93;;;0.60;;
16153;SDS011;8182;55.648;13.208;2023-05-20T13:07:09;2.87;;;0.67;;
16153;SDS011;8182;55.648;13.208;2023-05-20T13:09:36;0.87;;;0.60;;
16153;SDS011;8182;55.648;13.208;2023-05-20T13:12:04;0.90;;;0.60;;
16153;SDS011;8182;55.648;13.208;2023-05-20T13:14:31;3.63;;;0.90;;
16153;SDS011;8182;55.648;13.208;2023-05-20T13:16:58;3.53;;;0.67;;
16153;SDS011;8182;55.648;13.208;2023-05-20T13:19:27;1.20;;;0.70;;
16153;SDS011;8182;55.648;13.208;2023-05-20T13:21:54;0.90;;;0.67;;
16153;SDS011;8182;55.648;13.208;2023-05-20T13:24:21;1.97;;;0.70;;
16153;SDS011;8182;55.648;13.208;2023-05-20T13:26:48;1.90;;;0.60;;
16153;SDS011;8182;55.648;13.208;2023-05-20T13:29:15;1.17;;;0.70;;
16153;SDS011;8182;55.648;13.208;2023-05-20T13:31:42;0.83;;;0.60;;
16153;SDS011;8182;55.648;13.208;2023-05-20T13:34:09;3.03;;;0.60;;
16153;SDS011;8182;55.648;13.208;2023-05-20T13:36:37;2.03;;;0.70;;
16153;SDS011;8182;55.648;13.208;2023-05-20T13:39:05;2.70;;;0.60;;
16153;SDS011;8182;55.648;13.208;2023-05-20T13:41:32;2.80;;;0.70;;
16153;SDS011;8182;55.648;13.208;2023-05-20T13:43:59;1.93;;;0.57;;
16153;SDS011;8182;55.648;13.208;2023-05-20T13:46:26;1.67;;;0.70;;
16153;SDS011;8182;55.648;13.208;2023-05-20T13:48:53;1.43;;;0.67;;
16153;SDS011;8182;55.648;13.208;2023-05-20T13:51:20;0.60;;;0.50;;
16153;SDS011;8182;55.648;13.208;2023-05-20T13:53:49;0.80;;;0.57;;
16153;SDS011;8182;55.648;13.208;2023-05-20T13:56:16;1.00;;;0.70;;
16153;SDS011;8182;55.648;13.208;2023-05-20T13:58:44;0.73;;;0.57;;
16153;SDS011;8182;55.648;13.208;2023-05-20T14:01:12;1.27;;;0.57;;
16153;SDS011;8182;55.648;13.208;2023-05-20T14:03:39;1.87;;;0.70;;
16153;SDS011;8182;55.648;13.208;2023-05-20T14:06:06;1.17;;;0.80;;
16153;SDS011;8182;55.648;13.208;2023-05-20T14:08:34;0.80;;;0.53;;
16153;SDS011;8182;55.648;13.208;2023-05-20T14:11:05;2.13;;;0.63;;
16153;SDS011;8182;55.648;13.208;2023-05-20T14:13:32;0.93;;;0.70;;
16153;SDS011;8182;55.648;13.208;2023-05-20T14:15:59;3.50;;;0.77;;
16153;SDS011;8182;55.648;13.208;2023-05-20T14:18:25;2.07;;;0.73;;
16153;SDS011;8182;55.648;13.208;2023-05-20T14:20:52;4.87;;;0.90;;
16153;SDS011;8182;55.648;13.208;2023-05-20T14:23:20;0.80;;;0.60;;
16153;SDS011;8182;55.648;13.208;2023-05-20T14:25:47;4.07;;;0.50;;
16153;SDS011;8182;55.648;13.208;2023-05-20T14:28:16;1.57;;;0.70;;
16153;SDS011;8182;55.648;13.208;2023-05-20T14:30:42;5.33;;;0.93;;
16153;SDS011;8182;55.648;13.208;2023-05-20T14:33:09;0.63;;;0.60;;
16153;SDS011;8182;55.648;13.208;2023-05-20T14:35:36;2.80;;;0.90;;
16153;SDS011;8182;55.648;13.208;2023-05-20T14:38:03;1.47;;;0.73;;
16153;SDS011;8182;55.648;13.208;2023-05-20T14:40:30;1.33;;;0.80;;
16153;SDS011;8182;55.648;13.208;2023-05-20T14:42:57;1.33;;;0.80;;
16153;SDS011;8182;55.648;13.208;2023-05-20T14:45:26;2.07;;;0.80;;
16153;SDS011;8182;55.648;13.208;2023-05-20T14:47:53;3.17;;;0.73;;
16153;SDS011;8182;55.648;13.208;2023-05-20T14:50:20;1.77;;;0.70;;
16153;SDS011;8182;55.648;13.208;2023-05-20T14:52:48;6.10;;;1.07;;